createdAt,value
2022-10-17T00:00:34.351Z,17.80
2022-10-17T00:03:02.591Z,17.80
2022-10-17T00:05:32.033Z,17.80
2022-10-17T00:08:00.108Z,17.80
2022-10-17T00:10:28.159Z,17.70
2022-10-17T00:12:56.179Z,17.70
2022-10-17T00:15:24.713Z,17.70
2022-10-17T00:17:52.755Z,17.70
2022-10-17T00:20:21.055Z,17.70
2022-10-17T00:22:50.514Z,17.60
2022-10-17T00:25:19.171Z,17.60
2022-10-17T00:27:47.208Z,17.60
2022-10-17T00:30:17.299Z,17.50
2022-10-17T00:32:45.362Z,17.50
2022-10-17T00:35:13.533Z,17.50
2022-10-17T00:37:41.595Z,17.50
2022-10-17T00:40:12.333Z,17.50
2022-10-17T00:42:40.390Z,17.40
2022-10-17T00:45:16.029Z,17.50
2022-10-17T00:47:47.588Z,17.50
2022-10-17T00:50:17.003Z,17.50
2022-10-17T00:52:46.023Z,17.50
2022-10-17T00:55:18.498Z,17.50
2022-10-17T00:57:47.464Z,17.40
2022-10-17T01:00:17.088Z,17.40
2022-10-17T01:02:45.354Z,17.40
2022-10-17T01:05:14.136Z,17.40
2022-10-17T01:07:44.456Z,17.40
2022-10-17T01:10:14.073Z,17.40
2022-10-17T01:13:00.257Z,17.40
2022-10-17T01:15:41.062Z,17.40
2022-10-17T01:18:23.782Z,17.40
2022-10-17T01:21:23.230Z,17.40
2022-10-17T01:24:14.046Z,17.40
2022-10-17T01:27:06.761Z,17.40
2022-10-17T01:30:00.848Z,17.50
2022-10-17T01:32:36.278Z,17.40
2022-10-17T01:35:11.436Z,17.50
2022-10-17T01:37:45.155Z,17.40
2022-10-17T01:40:21.447Z,17.40
2022-10-17T01:42:55.600Z,17.40
2022-10-17T01:45:30.881Z,17.40
2022-10-17T02:22:12.743Z,17.30
2022-10-17T02:24:49.260Z,17.30
2022-10-17T02:27:32.146Z,17.30
2022-10-17T02:30:07.218Z,17.20
2022-10-17T02:32:40.103Z,17.20
2022-10-17T02:35:12.495Z,17.20
2022-10-17T02:37:43.431Z,17.20
2022-10-17T02:40:14.280Z,17.20
2022-10-17T02:42:45.575Z,17.20
2022-10-17T02:45:15.142Z,17.20
2022-10-17T02:47:51.814Z,17.20
2022-10-17T02:50:23.901Z,17.20
2022-10-17T02:52:59.219Z,17.20
2022-10-17T02:55:33.500Z,17.20
2022-10-17T02:58:06.923Z,17.20
2022-10-17T03:00:36.274Z,17.20
2022-10-17T03:03:20.550Z,17.20
2022-10-17T03:05:48.774Z,17.20
2022-10-17T03:08:18.323Z,17.20
2022-10-17T03:10:46.933Z,17.20
2022-10-17T03:13:15.345Z,17.20
2022-10-17T03:15:43.710Z,17.20
2022-10-17T03:18:12.226Z,17.20
2022-10-17T03:20:40.462Z,17.20
2022-10-17T03:23:08.657Z,17.20
2022-10-17T03:25:38.230Z,17.20
2022-10-17T03:28:06.716Z,17.20
2022-10-17T03:30:35.381Z,17.20
2022-10-17T03:33:03.554Z,17.20
2022-10-17T03:35:31.726Z,17.20
2022-10-17T03:37:59.882Z,17.20
2022-10-17T03:40:28.156Z,17.20
2022-10-17T03:42:57.708Z,17.20
2022-10-17T03:45:25.914Z,17.20
2022-10-17T03:47:54.113Z,17.10
2022-10-17T03:50:22.308Z,17.10
2022-10-17T03:52:50.931Z,17.10
2022-10-17T03:55:19.600Z,17.10
2022-10-17T03:57:47.773Z,17.10
2022-10-17T04:00:17.691Z,17.10
2022-10-17T04:02:46.291Z,17.10
2022-10-17T04:05:14.630Z,17.10
2022-10-17T04:07:42.833Z,17.10
2022-10-17T04:10:11.665Z,17.10
2022-10-17T04:12:39.871Z,17.10
2022-10-17T04:15:09.238Z,17.20
2022-10-17T04:17:38.817Z,17.20
2022-10-17T04:20:07.931Z,17.20
2022-10-17T04:22:36.121Z,17.20
2022-10-17T04:25:04.470Z,17.20
2022-10-17T04:27:32.642Z,17.30
2022-10-17T04:30:00.868Z,17.30
2022-10-17T04:32:29.325Z,17.30
2022-10-17T04:34:59.098Z,17.30
2022-10-17T04:37:27.254Z,17.20
2022-10-17T04:39:55.407Z,17.20
2022-10-17T04:42:23.578Z,17.20
2022-10-17T04:44:51.762Z,17.10
2022-10-17T04:47:19.974Z,17.10
2022-10-17T04:49:48.150Z,17.10
2022-10-17T04:52:17.736Z,17.00
2022-10-17T04:54:45.967Z,17.00
2022-10-17T04:57:14.143Z,17.00
2022-10-17T04:59:42.315Z,17.00
2022-10-17T05:02:10.508Z,16.90
2022-10-17T05:04:38.691Z,16.90
2022-10-17T05:07:06.856Z,16.90
2022-10-17T05:09:36.430Z,16.90
2022-10-17T05:12:06.756Z,16.90
2022-10-17T05:14:37.737Z,16.90
2022-10-17T05:17:05.913Z,16.90
2022-10-17T05:19:34.086Z,16.90
2022-10-17T05:22:02.278Z,16.90
2022-10-17T05:24:30.513Z,17.00
2022-10-17T05:27:00.089Z,17.00
2022-10-17T05:29:28.330Z,17.00
2022-10-17T05:31:56.521Z,17.00
2022-10-17T05:34:25.146Z,17.00
2022-10-17T05:36:53.382Z,17.00
2022-10-17T05:39:21.757Z,17.00
2022-10-17T05:41:51.293Z,17.10
2022-10-17T05:44:20.890Z,17.10
2022-10-17T05:46:50.526Z,17.10
2022-10-17T05:49:32.546Z,17.10
2022-10-17T05:52:07.890Z,17.20
2022-10-17T05:54:36.202Z,17.20
2022-10-17T05:57:04.478Z,17.20
2022-10-17T05:59:34.027Z,17.20
2022-10-17T06:02:02.472Z,17.20
2022-10-17T06:04:30.719Z,17.20
2022-10-17T06:06:58.970Z,17.30
2022-10-17T06:09:27.254Z,17.30
2022-10-17T06:11:55.433Z,17.20
2022-10-17T06:14:23.755Z,17.30
2022-10-17T06:16:53.291Z,17.30
2022-10-17T06:19:21.512Z,17.30
2022-10-17T06:21:49.715Z,17.30
2022-10-17T06:24:18.098Z,17.30
2022-10-17T06:26:47.628Z,17.30
2022-10-17T06:29:16.038Z,17.30
2022-10-17T06:31:44.354Z,17.30
2022-10-17T06:34:14.022Z,17.30
2022-10-17T06:36:42.216Z,17.30
2022-10-17T06:39:10.423Z,17.40
2022-10-17T06:41:39.698Z,17.40
2022-10-17T06:44:11.091Z,17.40
2022-10-17T06:46:39.352Z,17.40
2022-10-17T06:49:08.267Z,17.50
2022-10-17T06:51:38.687Z,17.50
2022-10-17T07:57:22.704Z,18.40
2022-10-17T07:59:51.380Z,18.50
2022-10-17T08:02:23.618Z,18.50
2022-10-17T08:04:51.814Z,18.60
2022-10-17T08:07:24.114Z,18.60
2022-10-17T08:09:53.691Z,18.70
2022-10-17T08:12:24.308Z,18.70
2022-10-17T08:14:52.485Z,18.80
2022-10-17T08:17:20.663Z,18.80
2022-10-17T08:19:48.825Z,18.90
2022-10-17T08:22:16.977Z,19.00
2022-10-17T08:24:46.269Z,19.00
2022-10-17T08:27:14.666Z,19.00
2022-10-17T08:29:48.412Z,19.10
2022-10-17T08:32:16.594Z,19.20
2022-10-17T08:34:44.782Z,19.20
2022-10-17T08:37:13.552Z,19.30
2022-10-17T08:39:42.457Z,19.30
2022-10-17T08:42:36.093Z,19.30
2022-10-17T08:45:17.866Z,19.30
2022-10-17T08:47:48.507Z,19.40
2022-10-17T08:50:34.416Z,19.40
2022-10-17T08:53:07.417Z,19.40
2022-10-17T08:55:41.475Z,19.40
2022-10-17T08:58:15.832Z,19.50
2022-10-17T09:00:51.493Z,19.60
2022-10-17T09:03:33.910Z,19.60
2022-10-17T09:06:12.486Z,19.60
2022-10-17T09:08:49.386Z,19.70
2022-10-17T09:11:30.906Z,19.70
2022-10-17T09:14:09.564Z,19.70
2022-10-17T09:17:00.929Z,19.70
2022-10-17T09:19:33.929Z,19.80
2022-10-17T09:22:07.617Z,19.90
2022-10-17T09:24:43.319Z,19.90
2022-10-17T09:27:23.261Z,20.00
2022-10-17T09:29:55.721Z,20.00
2022-10-17T09:32:27.287Z,20.10
2022-10-17T09:34:55.633Z,20.10
2022-10-17T09:37:32.506Z,20.20
2022-10-17T09:40:00.869Z,20.20
2022-10-17T09:42:29.921Z,20.30
2022-10-17T09:45:06.166Z,20.30
2022-10-17T09:47:42.321Z,20.40
2022-10-17T09:50:25.800Z,20.40
2022-10-17T09:52:55.398Z,20.50
2022-10-17T09:55:32.715Z,20.60
2022-10-17T09:58:02.441Z,20.70
2022-10-17T10:00:32.142Z,20.80
2022-10-17T10:03:23.588Z,20.80
2022-10-17T10:06:03.321Z,20.90
2022-10-17T10:08:33.912Z,21.00
2022-10-17T10:11:04.754Z,21.10
2022-10-17T10:13:34.211Z,21.20
2022-10-17T10:16:18.883Z,21.20
2022-10-17T10:18:50.937Z,21.30
2022-10-17T10:21:21.257Z,21.30
2022-10-17T10:24:07.002Z,21.40
2022-10-17T10:26:39.920Z,21.40
2022-10-17T10:29:21.104Z,21.50
2022-10-17T10:31:50.701Z,21.50
2022-10-17T10:34:25.608Z,21.50
2022-10-17T10:37:04.767Z,21.60
2022-10-17T10:39:42.384Z,21.60
2022-10-17T10:42:23.192Z,21.60
2022-10-17T10:44:52.721Z,21.70
2022-10-17T10:47:24.006Z,21.80
2022-10-17T10:50:07.379Z,21.80
2022-10-17T10:52:43.670Z,21.80
2022-10-17T10:55:27.315Z,21.80
2022-10-17T10:58:01.595Z,21.90
2022-10-17T11:00:32.364Z,21.90
2022-10-17T11:03:12.650Z,21.90
2022-10-17T11:05:47.423Z,21.90
2022-10-17T11:08:25.621Z,22.00
2022-10-17T11:11:05.762Z,22.00
2022-10-17T11:13:40.774Z,22.00
2022-10-17T11:16:24.502Z,22.00
2022-10-17T11:18:56.643Z,22.00
2022-10-17T11:21:36.535Z,22.10
2022-10-17T11:24:12.012Z,22.10
2022-10-17T11:26:44.240Z,22.10
2022-10-17T11:29:14.173Z,22.20
2022-10-17T11:31:48.861Z,22.20
2022-10-17T11:34:20.638Z,22.20
2022-10-17T11:36:54.295Z,22.30
2022-10-17T11:39:30.310Z,22.30
2022-10-17T11:42:04.283Z,22.30
2022-10-17T11:44:36.786Z,22.30
2022-10-17T11:47:12.598Z,22.40
2022-10-17T11:49:48.492Z,22.40
2022-10-17T11:52:54.840Z,22.40
2022-10-17T11:55:23.539Z,22.40
2022-10-17T11:58:08.617Z,22.50
2022-10-17T12:00:52.023Z,22.50
2022-10-17T12:03:31.709Z,22.50
2022-10-17T12:06:05.633Z,22.50
2022-10-17T12:08:40.686Z,22.60
2022-10-17T12:11:16.202Z,22.60
2022-10-17T12:13:53.495Z,22.60
2022-10-17T12:16:51.985Z,22.60
2022-10-17T12:19:34.946Z,22.60
2022-10-17T12:22:18.922Z,22.70
2022-10-17T12:24:57.534Z,22.70
2022-10-17T12:27:37.513Z,22.70
2022-10-17T12:30:16.252Z,22.80
2022-10-17T12:33:07.947Z,22.80
2022-10-17T12:35:38.502Z,22.80
2022-10-17T12:38:21.967Z,22.80
2022-10-17T12:41:02.085Z,22.80
2022-10-17T12:43:57.567Z,22.80
2022-10-17T12:46:59.546Z,22.80
2022-10-17T12:49:49.146Z,22.80
2022-10-17T12:52:43.370Z,22.80
2022-10-17T12:55:16.603Z,22.80
2022-10-17T12:57:52.700Z,22.90
2022-10-17T13:00:25.143Z,22.80
2022-10-17T13:02:56.011Z,22.90
2022-10-17T13:05:30.543Z,22.90
2022-10-17T13:08:02.410Z,22.90
2022-10-17T13:10:33.208Z,22.90
2022-10-17T13:13:07.810Z,22.90
2022-10-17T13:15:39.151Z,22.90
2022-10-17T13:18:10.151Z,23.00
2022-10-17T13:20:38.354Z,22.90
2022-10-17T13:23:12.540Z,23.00
2022-10-17T13:40:50.624Z,22.90
2022-10-17T13:43:21.854Z,22.90
2022-10-17T13:45:52.499Z,22.90
2022-10-17T13:48:23.360Z,22.90
2022-10-17T13:50:55.165Z,22.90
2022-10-17T13:53:30.533Z,22.90
2022-10-17T13:56:26.778Z,22.90
2022-10-17T13:58:52.254Z,22.90
2022-10-17T14:01:22.442Z,22.90
2022-10-17T14:04:02.188Z,22.90
2022-10-17T14:06:38.234Z,22.80
2022-10-17T14:09:08.818Z,22.80
2022-10-17T14:11:40.685Z,22.90
2022-10-17T14:14:18.729Z,22.90
2022-10-17T14:16:47.279Z,22.80
2022-10-17T14:19:26.558Z,22.90
2022-10-17T14:21:57.092Z,22.80
2022-10-17T14:24:31.515Z,22.90
2022-10-17T14:27:01.683Z,22.90
2022-10-17T14:29:31.922Z,22.90
2022-10-17T14:32:03.320Z,22.90
2022-10-17T14:34:34.665Z,22.90
2022-10-17T14:37:04.042Z,22.90
2022-10-17T14:39:32.215Z,22.80
2022-10-17T14:42:04.404Z,22.90
2022-10-17T14:44:36.311Z,22.80
2022-10-17T14:47:30.847Z,22.80
2022-10-17T14:50:05.909Z,22.80
2022-10-17T14:52:34.949Z,22.80
2022-10-17T14:55:22.084Z,22.80
2022-10-17T14:57:51.737Z,22.70
2022-10-17T15:00:21.908Z,22.70
2022-10-17T15:02:51.238Z,22.70
2022-10-17T15:05:20.501Z,22.60
2022-10-17T15:10:42.863Z,22.60
2022-10-17T15:13:27.577Z,22.60
2022-10-17T15:15:57.168Z,22.60
2022-10-17T15:18:25.325Z,22.50
2022-10-17T15:21:04.539Z,22.50
2022-10-17T15:23:34.854Z,22.40
2022-10-17T15:26:03.167Z,22.40
2022-10-17T15:28:32.810Z,22.40
2022-10-17T15:31:01.057Z,22.40
2022-10-17T15:33:29.231Z,22.50
2022-10-17T15:38:26.553Z,22.50
2022-10-17T15:40:54.900Z,22.60
2022-10-17T15:43:23.083Z,22.60
2022-10-17T15:45:52.667Z,22.60
2022-10-17T15:48:27.830Z,22.60
2022-10-17T15:50:56.014Z,22.70
2022-10-17T15:53:24.426Z,22.70
2022-10-17T15:55:52.637Z,22.70
2022-10-17T15:58:21.271Z,22.70
2022-10-17T16:00:49.917Z,22.70
2022-10-17T16:03:19.564Z,22.60
2022-10-17T16:05:47.906Z,22.60
2022-10-17T16:08:16.254Z,22.60
2022-10-17T16:10:44.468Z,22.60
2022-10-17T16:13:18.876Z,22.50
2022-10-17T16:15:47.155Z,22.50
2022-10-17T16:18:15.612Z,22.50
2022-10-17T16:20:45.186Z,22.50
2022-10-17T16:23:15.437Z,22.50
2022-10-17T16:25:43.889Z,22.50
2022-10-17T16:28:12.160Z,22.40
2022-10-17T16:30:46.045Z,22.40
2022-10-17T16:33:14.346Z,22.40
2022-10-17T16:35:42.610Z,22.30
2022-10-17T16:38:12.214Z,22.30
2022-10-17T16:40:40.815Z,22.20
2022-10-17T16:43:09.213Z,22.20
2022-10-17T16:45:37.703Z,22.10
2022-10-17T16:48:06.338Z,22.10
2022-10-17T16:50:35.766Z,22.00
2022-10-17T16:53:04.259Z,22.00
2022-10-17T16:55:33.805Z,22.00
2022-10-17T16:58:02.025Z,21.90
2022-10-17T17:00:30.344Z,21.90
2022-10-17T17:02:58.582Z,21.90
2022-10-17T17:05:26.765Z,21.80
2022-10-17T17:07:55.937Z,21.80
2022-10-17T17:10:24.102Z,21.80
2022-10-17T17:12:53.647Z,21.80
2022-10-17T17:15:21.807Z,21.80
2022-10-17T17:17:53.484Z,21.70
2022-10-17T17:20:23.349Z,21.70
2022-10-17T17:22:52.426Z,21.70
2022-10-17T17:25:20.721Z,21.70
2022-10-17T17:27:49.075Z,21.70
2022-10-17T17:30:18.921Z,21.70
2022-10-17T17:32:47.082Z,21.60
2022-10-17T17:35:15.259Z,21.60
2022-10-17T17:37:43.434Z,21.60
2022-10-17T17:40:12.534Z,21.50
2022-10-17T17:42:40.759Z,21.50
2022-10-17T17:45:10.059Z,21.40
2022-10-17T17:47:39.633Z,21.30
2022-10-17T17:50:08.661Z,21.30
2022-10-17T17:52:36.827Z,21.20
2022-10-17T17:55:05.378Z,21.20
2022-10-17T17:57:33.530Z,21.10
2022-10-17T18:00:01.689Z,21.10
2022-10-17T18:02:30.008Z,21.00
2022-10-17T18:04:59.745Z,21.00
2022-10-17T18:07:27.932Z,21.00
2022-10-17T18:09:57.041Z,20.90
2022-10-17T18:12:33.433Z,20.90
2022-10-17T18:15:01.881Z,20.90
2022-10-17T18:17:39.792Z,20.80
2022-10-17T18:20:10.232Z,20.70
2022-10-17T18:22:39.625Z,20.70
2022-10-17T18:25:08.370Z,20.70
2022-10-17T18:27:36.565Z,20.60
2022-10-17T18:30:05.203Z,20.60
2022-10-17T18:32:33.819Z,20.60
2022-10-17T18:35:04.345Z,20.50
2022-10-17T18:37:34.015Z,20.50
2022-10-17T18:40:03.194Z,20.50
2022-10-17T18:42:31.578Z,20.40
2022-10-17T18:45:05.764Z,20.40
2022-10-17T18:47:34.970Z,20.40
2022-10-17T18:50:03.198Z,20.30
2022-10-17T18:52:31.390Z,20.30
2022-10-17T18:55:00.971Z,20.30
2022-10-17T18:57:29.398Z,20.30
2022-10-17T18:59:57.868Z,20.20
2022-10-17T19:02:26.048Z,20.20
2022-10-17T19:04:54.219Z,20.20
2022-10-17T19:07:22.390Z,20.20
2022-10-17T19:09:53.646Z,20.10
2022-10-17T19:12:23.214Z,20.10
2022-10-17T19:14:56.189Z,20.10
2022-10-17T19:17:26.237Z,20.10
2022-10-17T19:19:55.178Z,20.00
2022-10-17T19:22:23.339Z,20.00
2022-10-17T19:24:53.823Z,20.00
2022-10-17T19:27:24.974Z,20.00
2022-10-17T19:29:55.060Z,20.00
2022-10-17T19:32:26.219Z,20.00
2022-10-17T19:34:54.688Z,20.00
2022-10-17T19:37:25.309Z,20.00
2022-10-17T19:39:54.532Z,19.90
2022-10-17T19:42:24.086Z,19.90
2022-10-17T19:44:52.272Z,19.90
2022-10-17T19:47:20.442Z,19.90
2022-10-17T19:49:50.935Z,19.90
2022-10-17T19:52:19.181Z,19.90
2022-10-17T19:54:47.339Z,19.90
2022-10-17T19:57:17.723Z,19.90
2022-10-17T19:59:48.559Z,19.90
2022-10-17T20:02:18.421Z,19.90
2022-10-17T20:05:18.680Z,19.80
2022-10-17T20:07:47.061Z,19.80
2022-10-17T20:10:16.909Z,19.80
2022-10-17T20:12:44.945Z,19.70
2022-10-17T20:15:14.424Z,19.70
2022-10-17T20:17:42.580Z,19.70
2022-10-17T20:20:11.245Z,19.70
2022-10-17T20:22:39.291Z,19.70
2022-10-17T20:25:08.030Z,19.70
2022-10-17T20:27:36.119Z,19.60
2022-10-17T20:30:04.667Z,19.60
2022-10-17T20:32:39.438Z,19.60
2022-10-17T20:35:09.382Z,19.60
2022-10-17T20:37:41.559Z,19.60
2022-10-17T20:40:33.444Z,19.60
2022-10-17T20:42:59.999Z,19.60
2022-10-17T20:45:43.621Z,19.70
2022-10-17T20:48:17.759Z,19.70
2022-10-17T20:50:46.040Z,19.70
2022-10-17T20:56:03.858Z,19.60
2022-10-17T20:58:32.030Z,19.60
2022-10-17T21:01:00.114Z,19.60
2022-10-17T21:03:29.545Z,19.60
2022-10-17T21:05:57.541Z,19.60
2022-10-17T21:08:25.607Z,19.60
2022-10-17T21:10:53.648Z,19.60
2022-10-17T21:13:21.714Z,19.50
2022-10-17T21:15:49.752Z,19.50
2022-10-17T21:18:17.769Z,19.50
2022-10-17T21:20:47.213Z,19.40
2022-10-17T21:23:15.252Z,19.50
2022-10-17T21:25:43.877Z,19.40
2022-10-17T21:28:11.896Z,19.40
2022-10-17T21:30:39.915Z,19.40
2022-10-17T21:33:08.069Z,19.40
2022-10-17T21:35:36.175Z,19.40
2022-10-17T21:38:05.976Z,19.40
2022-10-17T21:40:34.123Z,19.30
2022-10-17T21:43:02.147Z,19.40
2022-10-17T21:45:30.191Z,19.30
2022-10-17T21:48:13.748Z,19.30
2022-10-17T21:50:42.211Z,19.30
2022-10-17T21:53:11.658Z,19.30
2022-10-17T21:55:39.812Z,19.30
2022-10-17T21:58:07.880Z,19.30
2022-10-17T22:00:35.919Z,19.20
2022-10-17T22:03:04.095Z,19.20
2022-10-17T22:05:32.666Z,19.20
2022-10-17T22:08:00.758Z,19.20
2022-10-17T22:10:30.158Z,19.20
2022-10-17T22:12:58.192Z,19.20
2022-10-17T22:15:26.246Z,19.20
2022-10-17T22:17:54.301Z,19.30
2022-10-17T22:20:22.326Z,19.40
2022-10-17T22:22:50.417Z,19.50
2022-10-17T22:25:18.591Z,19.60
2022-10-17T22:27:48.348Z,19.70
2022-10-17T22:30:16.497Z,19.70
2022-10-17T22:32:44.753Z,19.70
2022-10-17T22:35:12.853Z,19.70
2022-10-17T22:37:40.903Z,19.70
2022-10-17T22:40:09.635Z,19.60
2022-10-17T22:42:37.671Z,19.60
2022-10-17T22:45:07.886Z,19.60
2022-10-17T22:47:35.920Z,19.60
2022-10-17T22:50:04.077Z,19.60
2022-10-17T22:52:32.407Z,19.50
2022-10-17T22:55:00.667Z,19.50
2022-10-17T22:57:28.708Z,19.50
2022-10-17T22:59:56.741Z,19.50
2022-10-17T23:02:26.335Z,19.50
2022-10-17T23:04:54.368Z,19.50
2022-10-17T23:07:22.402Z,19.50
2022-10-17T23:09:50.451Z,19.50
2022-10-17T23:12:18.866Z,19.50
2022-10-17T23:14:46.901Z,19.50
2022-10-17T23:17:15.685Z,19.50
2022-10-17T23:19:45.193Z,19.50
2022-10-17T23:22:13.318Z,19.50
2022-10-17T23:24:41.372Z,19.40
2022-10-17T23:27:09.402Z,19.40
2022-10-17T23:29:37.443Z,19.40
2022-10-17T23:32:05.770Z,19.40
2022-10-17T23:34:33.851Z,19.40
2022-10-17T23:37:03.455Z,19.40
2022-10-17T23:39:31.511Z,19.40
2022-10-17T23:41:59.517Z,19.40
2022-10-17T23:44:27.583Z,19.40
2022-10-17T23:46:55.628Z,19.40
2022-10-17T23:49:23.643Z,19.40
2022-10-17T23:51:51.696Z,19.30
2022-10-17T23:54:21.164Z,19.40
2022-10-17T23:56:49.343Z,19.40
2022-10-17T23:59:17.579Z,19.30
